Cedar Ravine, California
Current Conditions -  °F | °C
As of 5:15 AM on Friday 31 Oct 2014 (Local Time) from KPVF Reporting Station
Overcast Overcast  
Wind Chill: 12°   Ceiling: 3500
Heat Index: 12°   Visibility: 10mi
Dew Point:   Wind: 3mph
Humidity: 72%   Direction: 50°NE
Pressure: 29.94"   Gusts: NA
Location:  38.7308°N, 120.774°W
Report Text: KPVF 311215Z AUTO 05003KT 10SM BKN035 OVC120 12/07 A2994 RMK AO1
Loading
Personal Weather Stations






























Interactive Weather Map
Tropical Storm Tracking
New forecast layout! Learn more

10-Day Weather Forecast

Advertisements
Track Severe Weather on mobile